sensor_id;sensor_type;location;lat;lon;timestamp;P1;durP1;ratioP1;P2;durP2;ratioP2
51556;SDS011;38766;53.194;5.532;2023-03-23T00:02:24;11.70;;;6.18;;
51556;SDS011;38766;53.194;5.532;2023-03-23T00:04:53;12.50;;;8.30;;
51556;SDS011;38766;53.194;5.532;2023-03-23T00:07:20;13.57;;;8.90;;
51556;SDS011;38766;53.194;5.532;2023-03-23T00:09:52;17.30;;;11.80;;
51556;SDS011;38766;53.194;5.532;2023-03-23T00:12:26;21.83;;;14.43;;
51556;SDS011;38766;53.194;5.532;2023-03-23T00:15:06;22.67;;;14.13;;
51556;SDS011;38766;53.194;5.532;2023-03-23T00:17:33;26.83;;;17.15;;
51556;SDS011;38766;53.194;5.532;2023-03-23T00:19:59;26.90;;;18.15;;
51556;SDS011;38766;53.194;5.532;2023-03-23T00:22:26;31.10;;;19.23;;
51556;SDS011;38766;53.194;5.532;2023-03-23T00:24:53;29.55;;;19.50;;
51556;SDS011;38766;53.194;5.532;2023-03-23T00:27:19;29.38;;;17.58;;
51556;SDS011;38766;53.194;5.532;2023-03-23T00:29:47;24.73;;;17.50;;
51556;SDS011;38766;53.194;5.532;2023-03-23T00:32:19;28.02;;;18.33;;
51556;SDS011;38766;53.194;5.532;2023-03-23T00:34:52;29.23;;;18.63;;
51556;SDS011;38766;53.194;5.532;2023-03-23T00:37:18;27.23;;;17.63;;
51556;SDS011;38766;53.194;5.532;2023-03-23T00:39:44;26.80;;;18.60;;
51556;SDS011;38766;53.194;5.532;2023-03-23T00:42:11;24.98;;;18.58;;
51556;SDS011;38766;53.194;5.532;2023-03-23T00:44:41;25.73;;;18.83;;
51556;SDS011;38766;53.194;5.532;2023-03-23T00:47:08;27.60;;;18.73;;
51556;SDS011;38766;53.194;5.532;2023-03-23T00:49:35;28.05;;;19.05;;
51556;SDS011;38766;53.194;5.532;2023-03-23T00:52:02;24.98;;;18.55;;
51556;SDS011;38766;53.194;5.532;2023-03-23T00:54:29;27.70;;;18.83;;
51556;SDS011;38766;53.194;5.532;2023-03-23T00:56:55;29.92;;;20.10;;
51556;SDS011;38766;53.194;5.532;2023-03-23T00:59:21;23.52;;;18.50;;
51556;SDS011;38766;53.194;5.532;2023-03-23T01:01:47;25.73;;;19.17;;
51556;SDS011;38766;53.194;5.532;2023-03-23T01:04:13;25.10;;;17.85;;
51556;SDS011;38766;53.194;5.532;2023-03-23T01:06:40;25.73;;;18.65;;
51556;SDS011;38766;53.194;5.532;2023-03-23T01:09:12;23.52;;;17.77;;
51556;SDS011;38766;53.194;5.532;2023-03-23T01:11:45;25.58;;;19.20;;
51556;SDS011;38766;53.194;5.532;2023-03-23T01:14:11;27.80;;;19.55;;
51556;SDS011;38766;53.194;5.532;2023-03-23T01:16:39;26.15;;;19.08;;
51556;SDS011;38766;53.194;5.532;2023-03-23T01:19:05;23.35;;;18.77;;
51556;SDS011;38766;53.194;5.532;2023-03-23T01:21:31;24.10;;;19.88;;
51556;SDS011;38766;53.194;5.532;2023-03-23T01:23:56;25.67;;;19.73;;
51556;SDS011;38766;53.194;5.532;2023-03-23T01:26:23;21.42;;;16.15;;
51556;SDS011;38766;53.194;5.532;2023-03-23T01:28:51;25.30;;;18.95;;
51556;SDS011;38766;53.194;5.532;2023-03-23T01:31:20;21.40;;;17.55;;
51556;SDS011;38766;53.194;5.532;2023-03-23T01:33:48;19.60;;;16.20;;
51556;SDS011;38766;53.194;5.532;2023-03-23T01:36:21;26.52;;;16.05;;
51556;SDS011;38766;53.194;5.532;2023-03-23T01:38:49;19.58;;;14.77;;
51556;SDS011;38766;53.194;5.532;2023-03-23T01:41:15;20.83;;;14.15;;
51556;SDS011;38766;53.194;5.532;2023-03-23T01:46:22;19.45;;;13.52;;
51556;SDS011;38766;53.194;5.532;2023-03-23T01:48:50;24.00;;;12.90;;
51556;SDS011;38766;53.194;5.532;2023-03-23T01:51:16;19.58;;;12.63;;
51556;SDS011;38766;53.194;5.532;2023-03-23T01:53:54;22.98;;;11.77;;
51556;SDS011;38766;53.194;5.532;2023-03-23T01:56:24;15.50;;;11.50;;
51556;SDS011;38766;53.194;5.532;2023-03-23T01:58:57;15.17;;;10.50;;
51556;SDS011;38766;53.194;5.532;2023-03-23T02:01:23;18.55;;;10.20;;
51556;SDS011;38766;53.194;5.532;2023-03-23T02:03:53;14.77;;;9.50;;
51556;SDS011;38766;53.194;5.532;2023-03-23T02:06:20;15.23;;;8.63;;
51556;SDS011;38766;53.194;5.532;2023-03-23T02:08:47;14.80;;;9.02;;
51556;SDS011;38766;53.194;5.532;2023-03-23T02:11:15;12.30;;;7.43;;
51556;SDS011;38766;53.194;5.532;2023-03-23T02:13:45;13.98;;;7.28;;
51556;SDS011;38766;53.194;5.532;2023-03-23T02:24:28;12.57;;;5.78;;
51556;SDS011;38766;53.194;5.532;2023-03-23T02:27:00;11.18;;;5.13;;
51556;SDS011;38766;53.194;5.532;2023-03-23T02:33:16;11.85;;;3.80;;
51556;SDS011;38766;53.194;5.532;2023-03-23T02:35:37;8.50;;;3.35;;
51556;SDS011;38766;53.194;5.532;2023-03-23T02:38:08;11.50;;;4.57;;
51556;SDS011;38766;53.194;5.532;2023-03-23T02:40:41;11.05;;;3.63;;
51556;SDS011;38766;53.194;5.532;2023-03-23T02:43:11;9.75;;;4.05;;
51556;SDS011;38766;53.194;5.532;2023-03-23T02:45:40;8.70;;;3.67;;
51556;SDS011;38766;53.194;5.532;2023-03-23T02:48:08;7.47;;;3.53;;
51556;SDS011;38766;53.194;5.532;2023-03-23T02:50:36;10.00;;;3.13;;
51556;SDS011;38766;53.194;5.532;2023-03-23T02:53:03;9.88;;;3.60;;
51556;SDS011;38766;53.194;5.532;2023-03-23T02:55:34;9.52;;;3.33;;
51556;SDS011;38766;53.194;5.532;2023-03-23T02:58:06;12.85;;;3.58;;
51556;SDS011;38766;53.194;5.532;2023-03-23T03:00:33;7.55;;;3.15;;
51556;SDS011;38766;53.194;5.532;2023-03-23T03:02:59;7.22;;;3.58;;
51556;SDS011;38766;53.194;5.532;2023-03-23T03:19:03;13.85;;;3.55;;
51556;SDS011;38766;53.194;5.532;2023-03-23T03:21:30;6.25;;;3.10;;
51556;SDS011;38766;53.194;5.532;2023-03-23T03:24:02;7.32;;;3.35;;
51556;SDS011;38766;53.194;5.532;2023-03-23T03:26:30;9.77;;;3.17;;
51556;SDS011;38766;53.194;5.532;2023-03-23T03:28:57;9.55;;;2.88;;
51556;SDS011;38766;53.194;5.532;2023-03-23T03:31:26;15.02;;;3.17;;
51556;SDS011;38766;53.194;5.532;2023-03-23T03:33:59;12.30;;;2.92;;
51556;SDS011;38766;53.194;5.532;2023-03-23T03:36:30;8.98;;;2.63;;
51556;SDS011;38766;53.194;5.532;2023-03-23T03:39:00;8.90;;;2.85;;
51556;SDS011;38766;53.194;5.532;2023-03-23T03:41:32;12.18;;;2.95;;
51556;SDS011;38766;53.194;5.532;2023-03-23T03:43:59;9.88;;;3.10;;
51556;SDS011;38766;53.194;5.532;2023-03-23T03:46:25;8.93;;;3.30;;
51556;SDS011;38766;53.194;5.532;2023-03-23T03:48:54;12.50;;;3.13;;
51556;SDS011;38766;53.194;5.532;2023-03-23T03:51:21;12.45;;;3.00;;
51556;SDS011;38766;53.194;5.532;2023-03-23T03:53:47;6.70;;;2.60;;
51556;SDS011;38766;53.194;5.532;2023-03-23T03:56:13;8.43;;;2.90;;
51556;SDS011;38766;53.194;5.532;2023-03-23T03:58:39;11.55;;;3.20;;
51556;SDS011;38766;53.194;5.532;2023-03-23T04:01:07;14.88;;;3.20;;
51556;SDS011;38766;53.194;5.532;2023-03-23T04:03:35;12.32;;;3.40;;
51556;SDS011;38766;53.194;5.532;2023-03-23T04:06:01;12.98;;;3.78;;
51556;SDS011;38766;53.194;5.532;2023-03-23T04:08:27;15.65;;;3.13;;
51556;SDS011;38766;53.194;5.532;2023-03-23T04:10:53;16.38;;;3.78;;
51556;SDS011;38766;53.194;5.532;2023-03-23T04:13:19;13.85;;;3.42;;
51556;SDS011;38766;53.194;5.532;2023-03-23T04:15:46;17.98;;;4.07;;
51556;SDS011;38766;53.194;5.532;2023-03-23T04:18:12;14.82;;;3.10;;
51556;SDS011;38766;53.194;5.532;2023-03-23T04:20:40;18.33;;;3.67;;
51556;SDS011;38766;53.194;5.532;2023-03-23T04:23:07;21.50;;;4.68;;
51556;SDS011;38766;53.194;5.532;2023-03-23T04:25:33;15.88;;;4.40;;
51556;SDS011;38766;53.194;5.532;2023-03-23T04:27:59;23.02;;;4.72;;
51556;SDS011;38766;53.194;5.532;2023-03-23T04:30:26;22.67;;;4.65;;
51556;SDS011;38766;53.194;5.532;2023-03-23T04:32:54;22.77;;;4.45;;
51556;SDS011;38766;53.194;5.532;2023-03-23T04:35:21;21.60;;;4.70;;
51556;SDS011;38766;53.194;5.532;2023-03-23T04:37:51;32.25;;;4.85;;
51556;SDS011;38766;53.194;5.532;2023-03-23T04:40:17;16.98;;;4.80;;
51556;SDS011;38766;53.194;5.532;2023-03-23T04:42:44;18.58;;;4.28;;
51556;SDS011;38766;53.194;5.532;2023-03-23T04:45:11;27.77;;;4.82;;
51556;SDS011;38766;53.194;5.532;2023-03-23T04:47:40;19.42;;;4.35;;
51556;SDS011;38766;53.194;5.532;2023-03-23T04:50:10;26.13;;;5.97;;
51556;SDS011;38766;53.194;5.532;2023-03-23T04:52:38;17.98;;;4.18;;
51556;SDS011;38766;53.194;5.532;2023-03-23T04:55:05;21.83;;;5.30;;
51556;SDS011;38766;53.194;5.532;2023-03-23T04:57:33;30.27;;;5.78;;
51556;SDS011;38766;53.194;5.532;2023-03-23T05:00:00;19.35;;;4.85;;
51556;SDS011;38766;53.194;5.532;2023-03-23T05:02:33;25.55;;;4.85;;
51556;SDS011;38766;53.194;5.532;2023-03-23T05:05:02;19.25;;;5.10;;
51556;SDS011;38766;53.194;5.532;2023-03-23T05:07:27;29.02;;;5.20;;
51556;SDS011;38766;53.194;5.532;2023-03-23T05:09:53;28.95;;;6.03;;
51556;SDS011;38766;53.194;5.532;2023-03-23T05:12:19;28.98;;;6.20;;
51556;SDS011;38766;53.194;5.532;2023-03-23T05:14:45;25.25;;;5.50;;
51556;SDS011;38766;53.194;5.532;2023-03-23T05:17:10;19.08;;;5.50;;
51556;SDS011;38766;53.194;5.532;2023-03-23T05:19:37;31.25;;;5.60;;
51556;SDS011;38766;53.194;5.532;2023-03-23T05:22:03;28.15;;;5.97;;
51556;SDS011;38766;53.194;5.532;2023-03-23T05:24:31;23.58;;;5.65;;
51556;SDS011;38766;53.194;5.532;2023-03-23T05:27:00;33.20;;;5.80;;
51556;SDS011;38766;53.194;5.532;2023-03-23T05:29:27;29.65;;;5.93;;
51556;SDS011;38766;53.194;5.532;2023-03-23T05:31:55;34.25;;;6.85;;
51556;SDS011;38766;53.194;5.532;2023-03-23T05:34:25;29.85;;;5.22;;
51556;SDS011;38766;53.194;5.532;2023-03-23T05:36:51;35.45;;;6.72;;
51556;SDS011;38766;53.194;5.532;2023-03-23T05:39:18;22.60;;;5.85;;
51556;SDS011;38766;53.194;5.532;2023-03-23T05:41:44;27.45;;;5.68;;
51556;SDS011;38766;53.194;5.532;2023-03-23T05:44:10;29.65;;;5.60;;
51556;SDS011;38766;53.194;5.532;2023-03-23T05:46:38;30.10;;;5.55;;
51556;SDS011;38766;53.194;5.532;2023-03-23T05:49:04;17.17;;;3.65;;
51556;SDS011;38766;53.194;5.532;2023-03-23T05:51:30;18.27;;;4.13;;
51556;SDS011;38766;53.194;5.532;2023-03-23T05:53:56;12.07;;;2.65;;
51556;SDS011;38766;53.194;5.532;2023-03-23T05:56:22;14.30;;;3.05;;
51556;SDS011;38766;53.194;5.532;2023-03-23T05:58:48;16.02;;;2.40;;
51556;SDS011;38766;53.194;5.532;2023-03-23T06:01:13;12.90;;;2.88;;
51556;SDS011;38766;53.194;5.532;2023-03-23T06:03:40;10.52;;;2.78;;
51556;SDS011;38766;53.194;5.532;2023-03-23T06:06:09;10.73;;;3.28;;
51556;SDS011;38766;53.194;5.532;2023-03-23T06:08:36;20.73;;;3.67;;
51556;SDS011;38766;53.194;5.532;2023-03-23T06:11:03;16.98;;;3.22;;
51556;SDS011;38766;53.194;5.532;2023-03-23T06:13:29;12.95;;;3.47;;
51556;SDS011;38766;53.194;5.532;2023-03-23T06:15:55;16.42;;;3.80;;
51556;SDS011;38766;53.194;5.532;2023-03-23T06:18:24;16.33;;;3.85;;
51556;SDS011;38766;53.194;5.532;2023-03-23T06:20:50;12.65;;;3.47;;
51556;SDS011;38766;53.194;5.532;2023-03-23T06:23:16;14.18;;;3.90;;
51556;SDS011;38766;53.194;5.532;2023-03-23T06:25:42;21.23;;;5.05;;
51556;SDS011;38766;53.194;5.532;2023-03-23T06:28:09;16.17;;;3.63;;
51556;SDS011;38766;53.194;5.532;2023-03-23T06:30:35;17.05;;;4.55;;
51556;SDS011;38766;53.194;5.532;2023-03-23T06:33:01;19.65;;;4.28;;
51556;SDS011;38766;53.194;5.532;2023-03-23T06:35:30;22.35;;;6.07;;
51556;SDS011;38766;53.194;5.532;2023-03-23T06:37:57;30.88;;;5.35;;
51556;SDS011;38766;53.194;5.532;2023-03-23T06:40:26;26.77;;;5.68;;
51556;SDS011;38766;53.194;5.532;2023-03-23T06:42:53;29.88;;;6.80;;
51556;SDS011;38766;53.194;5.532;2023-03-23T06:45:19;32.53;;;7.68;;
51556;SDS011;38766;53.194;5.532;2023-03-23T06:47:45;29.30;;;6.80;;
51556;SDS011;38766;53.194;5.532;2023-03-23T06:50:14;37.90;;;7.65;;
51556;SDS011;38766;53.194;5.532;2023-03-23T06:52:48;40.85;;;6.97;;
51556;SDS011;38766;53.194;5.532;2023-03-23T06:55:16;39.72;;;8.00;;
51556;SDS011;38766;53.194;5.532;2023-03-23T06:57:43;32.17;;;7.47;;
51556;SDS011;38766;53.194;5.532;2023-03-23T07:00:10;38.47;;;6.93;;
51556;SDS011;38766;53.194;5.532;2023-03-23T07:02:39;44.80;;;8.93;;
51556;SDS011;38766;53.194;5.532;2023-03-23T07:05:05;42.42;;;8.00;;
51556;SDS011;38766;53.194;5.532;2023-03-23T07:07:32;41.40;;;7.97;;
51556;SDS011;38766;53.194;5.532;2023-03-23T07:09:58;34.53;;;7.68;;
51556;SDS011;38766;53.194;5.532;2023-03-23T07:12:23;35.42;;;7.10;;
51556;SDS011;38766;53.194;5.532;2023-03-23T07:14:49;47.20;;;8.73;;
51556;SDS011;38766;53.194;5.532;2023-03-23T07:17:15;26.25;;;6.93;;
51556;SDS011;38766;53.194;5.532;2023-03-23T07:19:40;36.40;;;7.53;;
51556;SDS011;38766;53.194;5.532;2023-03-23T07:22:06;31.85;;;7.40;;
51556;SDS011;38766;53.194;5.532;2023-03-23T07:24:33;41.03;;;8.63;;
51556;SDS011;38766;53.194;5.532;2023-03-23T07:26:59;32.55;;;6.63;;
51556;SDS011;38766;53.194;5.532;2023-03-23T07:29:25;35.88;;;7.32;;
51556;SDS011;38766;53.194;5.532;2023-03-23T07:31:51;39.50;;;7.30;;
51556;SDS011;38766;53.194;5.532;2023-03-23T07:34:18;23.35;;;6.55;;
51556;SDS011;38766;53.194;5.532;2023-03-23T07:36:44;29.77;;;6.60;;
51556;SDS011;38766;53.194;5.532;2023-03-23T07:39:10;29.38;;;6.50;;
51556;SDS011;38766;53.194;5.532;2023-03-23T07:41:37;30.65;;;7.80;;
51556;SDS011;38766;53.194;5.532;2023-03-23T07:44:03;33.45;;;6.93;;
51556;SDS011;38766;53.194;5.532;2023-03-23T07:46:29;29.52;;;5.53;;
51556;SDS011;38766;53.194;5.532;2023-03-23T07:48:54;27.55;;;6.60;;
51556;SDS011;38766;53.194;5.532;2023-03-23T07:51:21;35.08;;;8.80;;
51556;SDS011;38766;53.194;5.532;2023-03-23T07:53:47;35.63;;;6.57;;
51556;SDS011;38766;53.194;5.532;2023-03-23T07:56:15;30.70;;;7.07;;
51556;SDS011;38766;53.194;5.532;2023-03-23T07:58:44;28.90;;;5.70;;
51556;SDS011;38766;53.194;5.532;2023-03-23T08:01:12;33.03;;;7.57;;
51556;SDS011;38766;53.194;5.532;2023-03-23T08:03:38;32.97;;;7.15;;
51556;SDS011;38766;53.194;5.532;2023-03-23T08:06:04;33.42;;;7.35;;
51556;SDS011;38766;53.194;5.532;2023-03-23T08:08:31;35.72;;;6.72;;
51556;SDS011;38766;53.194;5.532;2023-03-23T08:10:57;25.10;;;6.60;;
51556;SDS011;38766;53.194;5.532;2023-03-23T08:13:24;37.33;;;6.63;;
51556;SDS011;38766;53.194;5.532;2023-03-23T08:15:50;25.25;;;5.72;;
51556;SDS011;38766;53.194;5.532;2023-03-23T08:18:16;35.53;;;6.60;;
51556;SDS011;38766;53.194;5.532;2023-03-23T08:20:42;26.23;;;5.90;;
51556;SDS011;38766;53.194;5.532;2023-03-23T08:23:09;27.92;;;6.80;;
51556;SDS011;38766;53.194;5.532;2023-03-23T08:25:35;24.00;;;6.60;;
51556;SDS011;38766;53.194;5.532;2023-03-23T08:28:01;29.20;;;6.43;;
51556;SDS011;38766;53.194;5.532;2023-03-23T08:30:27;25.17;;;5.82;;
51556;SDS011;38766;53.194;5.532;2023-03-23T08:32:55;27.02;;;7.53;;
51556;SDS011;38766;53.194;5.532;2023-03-23T08:35:23;29.88;;;6.55;;
51556;SDS011;38766;53.194;5.532;2023-03-23T08:37:49;26.80;;;6.70;;
51556;SDS011;38766;53.194;5.532;2023-03-23T08:40:16;26.88;;;6.50;;
51556;SDS011;38766;53.194;5.532;2023-03-23T08:42:44;26.75;;;6.80;;
51556;SDS011;38766;53.194;5.532;2023-03-23T08:45:12;28.65;;;6.75;;
51556;SDS011;38766;53.194;5.532;2023-03-23T08:47:41;27.15;;;6.13;;
51556;SDS011;38766;53.194;5.532;2023-03-23T08:50:08;29.30;;;6.72;;
51556;SDS011;38766;53.194;5.532;2023-03-23T08:52:37;35.40;;;6.80;;
51556;SDS011;38766;53.194;5.532;2023-03-23T08:55:03;30.20;;;7.13;;
51556;SDS011;38766;53.194;5.532;2023-03-23T08:57:29;41.88;;;7.30;;
51556;SDS011;38766;53.194;5.532;2023-03-23T08:59:55;30.85;;;7.30;;
51556;SDS011;38766;53.194;5.532;2023-03-23T09:02:26;28.20;;;6.32;;
51556;SDS011;38766;53.194;5.532;2023-03-23T09:04:52;31.95;;;6.65;;
51556;SDS011;38766;53.194;5.532;2023-03-23T09:07:18;29.52;;;7.07;;
51556;SDS011;38766;53.194;5.532;2023-03-23T09:09:44;31.58;;;7.65;;
51556;SDS011;38766;53.194;5.532;2023-03-23T09:12:10;32.05;;;7.30;;
51556;SDS011;38766;53.194;5.532;2023-03-23T09:14:37;28.45;;;8.30;;
51556;SDS011;38766;53.194;5.532;2023-03-23T09:17:03;32.47;;;7.55;;
51556;SDS011;38766;53.194;5.532;2023-03-23T09:19:30;30.13;;;7.57;;
51556;SDS011;38766;53.194;5.532;2023-03-23T09:21:58;28.55;;;7.18;;
51556;SDS011;38766;53.194;5.532;2023-03-23T09:24:24;31.13;;;7.05;;
51556;SDS011;38766;53.194;5.532;2023-03-23T09:26:50;27.20;;;7.75;;
51556;SDS011;38766;53.194;5.532;2023-03-23T09:29:15;26.83;;;6.20;;
51556;SDS011;38766;53.194;5.532;2023-03-23T09:31:41;31.05;;;6.18;;
51556;SDS011;38766;53.194;5.532;2023-03-23T09:34:08;27.92;;;6.35;;
51556;SDS011;38766;53.194;5.532;2023-03-23T09:36:35;27.30;;;7.30;;
51556;SDS011;38766;53.194;5.532;2023-03-23T09:39:01;29.13;;;6.60;;
51556;SDS011;38766;53.194;5.532;2023-03-23T09:44:30;32.13;;;6.93;;
51556;SDS011;38766;53.194;5.532;2023-03-23T09:52:37;28.80;;;6.70;;
51556;SDS011;38766;53.194;5.532;2023-03-23T09:55:13;24.45;;;6.13;;
51556;SDS011;38766;53.194;5.532;2023-03-23T10:03:25;27.63;;;6.13;;
51556;SDS011;38766;53.194;5.532;2023-03-23T10:05:52;24.33;;;5.65;;
51556;SDS011;38766;53.194;5.532;2023-03-23T10:16:08;26.15;;;6.45;;
51556;SDS011;38766;53.194;5.532;2023-03-23T10:21:38;35.35;;;7.57;;
51556;SDS011;38766;53.194;5.532;2023-03-23T10:29:32;29.35;;;6.72;;
51556;SDS011;38766;53.194;5.532;2023-03-23T10:32:23;28.60;;;6.57;;
51556;SDS011;38766;53.194;5.532;2023-03-23T10:35:11;24.10;;;5.35;;
51556;SDS011;38766;53.194;5.532;2023-03-23T10:37:44;23.02;;;6.40;;
51556;SDS011;38766;53.194;5.532;2023-03-23T10:40:16;23.73;;;6.13;;
51556;SDS011;38766;53.194;5.532;2023-03-23T10:42:46;23.33;;;5.95;;
51556;SDS011;38766;53.194;5.532;2023-03-23T10:45:17;26.38;;;5.50;;
51556;SDS011;38766;53.194;5.532;2023-03-23T10:47:58;22.08;;;5.82;;
51556;SDS011;38766;53.194;5.532;2023-03-23T10:50:34;21.90;;;6.07;;
51556;SDS011;38766;53.194;5.532;2023-03-23T10:53:05;25.98;;;5.40;;
51556;SDS011;38766;53.194;5.532;2023-03-23T10:55:41;24.55;;;4.93;;
51556;SDS011;38766;53.194;5.532;2023-03-23T10:58:11;21.83;;;5.63;;
51556;SDS011;38766;53.194;5.532;2023-03-23T11:00:46;27.95;;;5.22;;
51556;SDS011;38766;53.194;5.532;2023-03-23T11:05:43;18.05;;;5.63;;
51556;SDS011;38766;53.194;5.532;2023-03-23T11:08:18;26.58;;;5.38;;
51556;SDS011;38766;53.194;5.532;2023-03-23T11:10:50;19.40;;;5.43;;
51556;SDS011;38766;53.194;5.532;2023-03-23T11:13:18;24.90;;;5.25;;
51556;SDS011;38766;53.194;5.532;2023-03-23T11:15:46;24.48;;;4.82;;
51556;SDS011;38766;53.194;5.532;2023-03-23T11:18:21;18.02;;;4.63;;
51556;SDS011;38766;53.194;5.532;2023-03-23T11:20:51;23.92;;;4.70;;
51556;SDS011;38766;53.194;5.532;2023-03-23T11:28:25;23.30;;;4.72;;
51556;SDS011;38766;53.194;5.532;2023-03-23T11:30:53;17.50;;;4.10;;
51556;SDS011;38766;53.194;5.532;2023-03-23T11:33:20;20.85;;;4.57;;
51556;SDS011;38766;53.194;5.532;2023-03-23T11:35:50;21.52;;;5.22;;
51556;SDS011;38766;53.194;5.532;2023-03-23T11:38:19;23.55;;;4.88;;
51556;SDS011;38766;53.194;5.532;2023-03-23T11:40:49;18.42;;;5.43;;
51556;SDS011;38766;53.194;5.532;2023-03-23T11:43:22;20.15;;;4.82;;
51556;SDS011;38766;53.194;5.532;2023-03-23T11:45:58;25.02;;;4.95;;
51556;SDS011;38766;53.194;5.532;2023-03-23T11:48:27;17.60;;;4.47;;
51556;SDS011;38766;53.194;5.532;2023-03-23T11:51:05;18.80;;;4.55;;
51556;SDS011;38766;53.194;5.532;2023-03-23T11:56:36;20.40;;;4.78;;
51556;SDS011;38766;53.194;5.532;2023-03-23T11:59:05;20.00;;;4.97;;
51556;SDS011;38766;53.194;5.532;2023-03-23T12:16:00;24.48;;;5.93;;
51556;SDS011;38766;53.194;5.532;2023-03-23T12:21:41;17.27;;;5.88;;
51556;SDS011;38766;53.194;5.532;2023-03-23T12:26:52;24.92;;;5.28;;
51556;SDS011;38766;53.194;5.532;2023-03-23T12:32:26;20.10;;;4.95;;
51556;SDS011;38766;53.194;5.532;2023-03-23T12:46:06;18.17;;;4.32;;
51556;SDS011;38766;53.194;5.532;2023-03-23T12:48:55;20.90;;;5.47;;
51556;SDS011;38766;53.194;5.532;2023-03-23T12:59:52;23.52;;;5.65;;
51556;SDS011;38766;53.194;5.532;2023-03-23T13:04:51;18.40;;;4.63;;
51556;SDS011;38766;53.194;5.532;2023-03-23T13:07:25;22.15;;;5.70;;
51556;SDS011;38766;53.194;5.532;2023-03-23T13:10:01;23.73;;;5.07;;
51556;SDS011;38766;53.194;5.532;2023-03-23T13:12:38;20.45;;;5.40;;
51556;SDS011;38766;53.194;5.532;2023-03-23T13:17:43;25.95;;;4.97;;
51556;SDS011;38766;53.194;5.532;2023-03-23T13:23:22;23.33;;;4.75;;
51556;SDS011;38766;53.194;5.532;2023-03-23T13:28:26;23.77;;;5.25;;
51556;SDS011;38766;53.194;5.532;2023-03-23T13:31:03;20.30;;;4.20;;
51556;SDS011;38766;53.194;5.532;2023-03-23T13:33:37;21.50;;;4.78;;
51556;SDS011;38766;53.194;5.532;2023-03-23T13:36:04;16.45;;;4.35;;
51556;SDS011;38766;53.194;5.532;2023-03-23T13:38:35;18.55;;;4.72;;
51556;SDS011;38766;53.194;5.532;2023-03-23T13:41:08;16.67;;;4.10;;
51556;SDS011;38766;53.194;5.532;2023-03-23T13:43:36;15.40;;;4.03;;
51556;SDS011;38766;53.194;5.532;2023-03-23T13:46:52;18.83;;;4.05;;
51556;SDS011;38766;53.194;5.532;2023-03-23T14:01:38;16.80;;;4.70;;
51556;SDS011;38766;53.194;5.532;2023-03-23T14:04:07;17.95;;;4.20;;
51556;SDS011;38766;53.194;5.532;2023-03-23T14:06:39;17.02;;;4.47;;
51556;SDS011;38766;53.194;5.532;2023-03-23T14:09:19;16.90;;;4.65;;
51556;SDS011;38766;53.194;5.532;2023-03-23T14:11:56;16.80;;;4.40;;
51556;SDS011;38766;53.194;5.532;2023-03-23T14:14:34;22.15;;;3.83;;
51556;SDS011;38766;53.194;5.532;2023-03-23T14:17:15;17.75;;;3.83;;
51556;SDS011;38766;53.194;5.532;2023-03-23T14:19:42;14.13;;;3.72;;
51556;SDS011;38766;53.194;5.532;2023-03-23T14:22:19;15.23;;;3.65;;
51556;SDS011;38766;53.194;5.532;2023-03-23T14:25:02;17.50;;;4.00;;
51556;SDS011;38766;53.194;5.532;2023-03-23T14:27:36;14.27;;;3.53;;
51556;SDS011;38766;53.194;5.532;2023-03-23T14:30:04;10.88;;;3.58;;
51556;SDS011;38766;53.194;5.532;2023-03-23T14:32:32;15.90;;;3.92;;
51556;SDS011;38766;53.194;5.532;2023-03-23T14:34:58;16.90;;;4.32;;
51556;SDS011;38766;53.194;5.532;2023-03-23T14:37:38;15.00;;;3.67;;
51556;SDS011;38766;53.194;5.532;2023-03-23T14:40:04;12.43;;;3.67;;
51556;SDS011;38766;53.194;5.532;2023-03-23T14:42:32;11.35;;;3.40;;
51556;SDS011;38766;53.194;5.532;2023-03-23T14:45:00;14.93;;;3.78;;
51556;SDS011;38766;53.194;5.532;2023-03-23T14:49:55;13.85;;;3.42;;
51556;SDS011;38766;53.194;5.532;2023-03-23T14:52:24;20.60;;;4.35;;
51556;SDS011;38766;53.194;5.532;2023-03-23T14:54:52;15.15;;;3.53;;
51556;SDS011;38766;53.194;5.532;2023-03-23T14:59:50;15.98;;;3.83;;
51556;SDS011;38766;53.194;5.532;2023-03-23T15:02:18;12.70;;;3.30;;
51556;SDS011;38766;53.194;5.532;2023-03-23T15:04:58;13.90;;;3.35;;
51556;SDS011;38766;53.194;5.532;2023-03-23T15:07:33;11.90;;;3.40;;
51556;SDS011;38766;53.194;5.532;2023-03-23T15:10:01;14.63;;;3.70;;
51556;SDS011;38766;53.194;5.532;2023-03-23T15:12:30;14.63;;;3.97;;
51556;SDS011;38766;53.194;5.532;2023-03-23T15:14:57;11.65;;;3.40;;
51556;SDS011;38766;53.194;5.532;2023-03-23T15:17:28;14.93;;;3.78;;
51556;SDS011;38766;53.194;5.532;2023-03-23T15:19:56;17.77;;;4.63;;
51556;SDS011;38766;53.194;5.532;2023-03-23T15:24:50;16.27;;;4.00;;
51556;SDS011;38766;53.194;5.532;2023-03-23T15:27:32;16.65;;;3.83;;
51556;SDS011;38766;53.194;5.532;2023-03-23T15:30:00;18.20;;;4.80;;
51556;SDS011;38766;53.194;5.532;2023-03-23T15:32:38;17.08;;;4.18;;
51556;SDS011;38766;53.194;5.532;2023-03-23T15:35:13;16.05;;;3.92;;
51556;SDS011;38766;53.194;5.532;2023-03-23T15:38:00;19.05;;;4.60;;
51556;SDS011;38766;53.194;5.532;2023-03-23T15:40:32;20.85;;;4.72;;
51556;SDS011;38766;53.194;5.532;2023-03-23T15:43:16;21.73;;;5.15;;
51556;SDS011;38766;53.194;5.532;2023-03-23T15:51:21;18.27;;;4.38;;
51556;SDS011;38766;53.194;5.532;2023-03-23T15:53:50;21.98;;;4.32;;
51556;SDS011;38766;53.194;5.532;2023-03-23T15:56:17;27.02;;;5.75;;
51556;SDS011;38766;53.194;5.532;2023-03-23T15:58:43;19.60;;;4.85;;
51556;SDS011;38766;53.194;5.532;2023-03-23T16:01:13;22.10;;;5.18;;
51556;SDS011;38766;53.194;5.532;2023-03-23T16:03:45;21.05;;;5.22;;
51556;SDS011;38766;53.194;5.532;2023-03-23T16:06:14;19.27;;;5.38;;
51556;SDS011;38766;53.194;5.532;2023-03-23T16:08:42;21.73;;;4.82;;
51556;SDS011;38766;53.194;5.532;2023-03-23T16:11:11;25.05;;;6.18;;
51556;SDS011;38766;53.194;5.532;2023-03-23T16:13:38;20.05;;;5.53;;
51556;SDS011;38766;53.194;5.532;2023-03-23T16:16:05;22.65;;;5.47;;
51556;SDS011;38766;53.194;5.532;2023-03-23T16:18:34;28.40;;;6.43;;
51556;SDS011;38766;53.194;5.532;2023-03-23T16:20:59;20.40;;;5.75;;
51556;SDS011;38766;53.194;5.532;2023-03-23T16:23:25;22.17;;;6.13;;
51556;SDS011;38766;53.194;5.532;2023-03-23T16:25:51;29.88;;;6.32;;
51556;SDS011;38766;53.194;5.532;2023-03-23T16:28:17;23.10;;;5.30;;
51556;SDS011;38766;53.194;5.532;2023-03-23T16:30:44;26.42;;;5.80;;
51556;SDS011;38766;53.194;5.532;2023-03-23T16:33:11;23.05;;;5.47;;
51556;SDS011;38766;53.194;5.532;2023-03-23T16:35:36;19.42;;;5.60;;
51556;SDS011;38766;53.194;5.532;2023-03-23T16:38:02;27.77;;;5.57;;
51556;SDS011;38766;53.194;5.532;2023-03-23T16:40:29;22.20;;;5.22;;
51556;SDS011;38766;53.194;5.532;2023-03-23T16:42:55;29.27;;;6.32;;
51556;SDS011;38766;53.194;5.532;2023-03-23T16:45:20;22.23;;;5.25;;
51556;SDS011;38766;53.194;5.532;2023-03-23T16:47:48;19.13;;;5.35;;
51556;SDS011;38766;53.194;5.532;2023-03-23T16:50:15;26.30;;;5.45;;
51556;SDS011;38766;53.194;5.532;2023-03-23T16:52:42;23.60;;;4.95;;
51556;SDS011;38766;53.194;5.532;2023-03-23T16:55:11;22.20;;;5.78;;
51556;SDS011;38766;53.194;5.532;2023-03-23T16:57:38;28.58;;;6.25;;
51556;SDS011;38766;53.194;5.532;2023-03-23T17:00:06;23.15;;;4.63;;
51556;SDS011;38766;53.194;5.532;2023-03-23T17:02:34;21.27;;;5.38;;
51556;SDS011;38766;53.194;5.532;2023-03-23T17:05:00;26.85;;;5.30;;
51556;SDS011;38766;53.194;5.532;2023-03-23T17:07:26;24.27;;;5.35;;
51556;SDS011;38766;53.194;5.532;2023-03-23T17:09:52;21.05;;;4.80;;
51556;SDS011;38766;53.194;5.532;2023-03-23T17:12:18;27.20;;;5.30;;